Airports

 

 

Airport Name Latest METAR Visual Conditions
Atlanta International (ATL) KATL 260152Z 09006KT 10SM FEW080 BKN120 BKN200 21/18 A3007 RMK AO2 RAE01 SLP173 P0000 T02110183 $ VFR
Asheville Regional (AVL) KAVL 260133Z AUTO 15004KT 10SM -RA SCT015 BKN021 OVC050 21/19 A3018 RMK AO2 RAB20 P0000 T02110189 MVFR
Birmingham International (BHM) KBHM 260053Z 09005KT 10SM FEW250 28/18 A2997 RMK AO2 SLP141 T02780178 VFR
Chattanooga (CHA) KCHA 260053Z 09003KT 10SM FEW045 FEW150 SCT250 28/18 A3002 RMK AO2 SLP159 T02780183 VFR
Charlotte International (CLT) KCLT 260152Z 06007KT 10SM SCT012 SCT046 BKN250 22/18 A3014 RMK AO2 SLP200 T02170183 $ VFR
Greensboro Piedmont-Triad (GSO) KGSO 260120Z 03003KT 10SM BKN016 OVC039 20/18 A3016 RMK AO2 T02000183 MVFR
Greenville-Spartanburg International (GSP) KGSP 260127Z 15004KT 10SM -RA FEW013 BKN034 OVC095 21/19 A3013 RMK AO2 RAE0057B06 P0000 T02110194 VFR
Middle Georgia Regional Airport (MCN) KMCN 260053Z AUTO 10007KT 10SM CLR 23/20 A3002 RMK AO2 SLP160 T02330200 VFR
Tri-Cities Airport (TRI) KTRI 260153Z 00000KT 10SM FEW130 SCT170 19/18 A3012 RMK AO2 SLP179 T01940178 $ VFR
Knoxville Regional (TYS) KTYS 260053Z 02006KT 10SM FEW055 BKN130 BKN250 23/18 A3004 RMK AO2 SLP163 T02330183 VFR